Flight Track Log - Related Links

Times and Time Zones

All times are in EDT time to prevent confusion due to time zone crossing. See the TMC890 flight status page for this flight to view local times or setup timezone preferences in your user account.

Time Position Orientation Groundspeed Altitude Reporting Facility
EDT Latitude Longitude Course Direction KTS MPH feet Rate Location/Type
Mon 06:38:54 AM 40.8833 -74.0500 346° North 195 224 1,100  Level New York TRACON
Mon 06:39:54 AM 40.9333 -74.0667 346° North 239 275 2,100 1,789 Climbing New York TRACON
Mon 06:40:48 AM 40.9333 -74.1500 270° West 237 273 4,500 2,789 Climbing New York TRACON
Mon 06:41:48 AM 40.9167 -74.2500 258° West 260 299 7,400 2,238 Climbing New York TRACON
Mon 06:42:54 AM 40.9333 -74.3333 285° West 262 302 9,200 1,444 Climbing New York TRACON
Mon 06:44:30 AM 40.9233 -74.5058 266° West 287 330 11,300 1,769 Climbing New York Center
Mon 06:45:30 AM 40.9222 -74.6103 269° West 312 359 13,800 2,656 Climbing New York Center
Mon 06:46:32 AM 40.9203 -74.7308 269° West 306 352 16,700 1,561 Climbing New York Center
Mon 06:47:33 AM 40.9211 -74.8297 271° West 306 352 17,000 153 Climbing New York Center
Mon 06:48:30 AM 40.9192 -74.9394 269° West 301 346 17,000 559 Level New York Center
Mon 06:49:31 AM 40.9189 -75.0631 270° West 307 353 18,100 1,328 Climbing New York Center
Mon 06:50:32 AM 40.9150 -75.1700 267° West 317 365 19,700 1,686 Climbing New York Center
Mon 06:51:32 AM 40.8919 -75.2892 256° West 323 372 21,500 1,627 Climbing New York Center
Mon 06:52:30 AM 40.8644 -75.4081 253° West 334 384 22,900 1,373 Climbing New York Center
Mon 06:53:30 AM 40.8342 -75.5350 253° West 345 397 24,200 1,289 Climbing New York Center
Mon 06:54:31 AM 40.8042 -75.6617 253° West 360 414 25,500 1,438 Climbing New York Center
Mon 06:55:31 AM 40.7758 -75.7914 254° West 365 420 27,100 1,537 Climbing New York Center
Mon 06:56:32 AM 40.7411 -75.9175 250° West 370 426 28,600 1,261 Climbing New York Center
Mon 06:57:30 AM 40.7103 -76.0494 253° West 375 432 29,600 1,068 Climbing New York Center
Mon 06:58:30 AM 40.6814 -76.1814 254° West 375 432 30,700 1,289 Climbing New York Center
Mon 06:59:31 AM 40.6753 -76.3147 267° West 375 432 32,200 1,377 Climbing New York Center
Mon 07:00:32 AM 40.6942 -76.4450 281° West 364 419 33,500 1,160 Climbing New York Center
Mon 07:01:30 AM 40.7131 -76.5700 281° West 364 419 34,500 915 Climbing New York Center
Mon 07:02:30 AM 40.7336 -76.7003 282° West 364 419 35,300 738 Climbing New York Center
Mon 07:03:32 AM 40.7500 -76.8306 279° West 364 419 36,000 857 Climbing New York Center
Mon 07:04:29 AM 40.7683 -76.9583 281° West 364 419 37,000 966 Climbing New York Center
Mon 07:05:30 AM 40.7889 -77.0836 282° West 358 412 37,900 885 Climbing New York Center
Mon 07:06:31 AM 40.8053 -77.2056 280° West 352 405 38,800 738 Climbing New York Center
Mon 07:07:32 AM 40.8233 -77.3308 281° West 352 405 39,400 555 Climbing New York Center
Mon 07:08:30 AM 40.8431 -77.4617 281° West 347 399 39,900 176 Climbing New York Center
Mon 07:10:56 AM 40.8828 -77.7569 280° West 354 407 40,000 29 Climbing Cleveland Center
Mon 07:11:56 AM 40.9006 -77.8853 280° West 354 407 40,000  Level Cleveland Center
Mon 07:12:56 AM 40.9181 -78.0167 280° West 354 407 40,000  Level Cleveland Center
Mon 07:13:56 AM 40.9336 -78.1506 279° West 361 415 40,000 -200 Level Cleveland Center
Mon 07:14:56 AM 40.9553 -78.2983 281° West 371 427 39,600 -650 Descending Cleveland Center
Mon 07:15:56 AM 40.9725 -78.4353 280° West 376 433 38,700 -800 Descending Cleveland Center
Mon 07:16:56 AM 40.9875 -78.5750 278° West 376 433 38,000 -350 Descending Cleveland Center
Mon 07:17:56 AM 41.0044 -78.7122 279° West 376 433 38,000  Level Cleveland Center
Mon 07:18:56 AM 41.0214 -78.8464 280° West 381 438 38,000  Level Cleveland Center
Mon 07:19:56 AM 41.0378 -78.9836 279° West 381 438 38,000  Level Cleveland Center
Mon 07:20:56 AM 41.0522 -79.1211 278° West 381 438 38,000  Level Cleveland Center
Mon 07:21:56 AM 41.0686 -79.2611 279° West 389 448 38,000  Level Cleveland Center
Mon 07:22:56 AM 41.0847 -79.3986 279° West 389 448 38,000  Level Cleveland Center
Mon 07:23:56 AM 41.0983 -79.5361 278° West 389 448 38,000  Level Cleveland Center
Mon 07:24:56 AM 41.1142 -79.6708 279° West 389 448 38,000  Level Cleveland Center
Mon 07:25:56 AM 41.1278 -79.8086 278° West 389 448 38,000  Level Cleveland Center
Mon 07:26:56 AM 41.1411 -79.9381 278° West 389 448 38,000  Level Cleveland Center
Mon 07:27:56 AM 41.1583 -80.0867 279° West 384 442 38,000  Level Cleveland Center
Mon 07:28:56 AM 41.1736 -80.2244 278° West 384 442 38,000  Level Cleveland Center
Mon 07:29:56 AM 41.1822 -80.3347 276° West 384 442 38,000  Level Cleveland Center
Mon 07:30:56 AM 41.1553 -80.4811 256° West 379 436 38,000  Level Cleveland Center
Mon 07:31:56 AM 41.1303 -80.6081 255° West 368 423 38,000  Level Cleveland Center
Mon 07:32:56 AM 41.1011 -80.7375 253° West 368 423 38,000  Level Cleveland Center
Mon 07:33:56 AM 41.0717 -80.8642 253° West 363 418 38,000  Level Cleveland Center
Mon 07:34:56 AM 41.0419 -80.9933 253° West 363 418 38,000  Level Cleveland Center
Mon 07:35:56 AM 41.0058 -81.1389 252° West 369 425 38,000  Level Cleveland Center
Mon 07:36:56 AM 40.9739 -81.2706 252° West 374 430 38,000  Level Cleveland Center
Mon 07:37:56 AM 40.9461 -81.3994 254° West 374 430 38,000  Level Cleveland Center
Mon 07:38:56 AM 40.9136 -81.5311 252° West 374 430 38,000  Level Cleveland Center
Mon 07:39:56 AM 40.8856 -81.6486 253° West 380 437 38,000  Level Cleveland Center
Mon 07:40:56 AM 40.8531 -81.7828 252° West 380 437 38,000  Level Cleveland Center
Mon 07:41:56 AM 40.8222 -81.9139 253° West 380 437 38,000  Level Cleveland Center
Mon 07:42:56 AM 40.7917 -82.0422 253° West 380 437 38,000  Level Cleveland Center
Mon 07:43:56 AM 40.7586 -82.1758 252° West 380 437 38,000  Level Cleveland Center
Mon 07:44:56 AM 40.7253 -82.3175 253° West 380 437 38,000  Level Cleveland Center
Mon 07:45:26 AM 40.7128 -82.3739 254° West 374 430 38,000  Level Indianapolis Center
Mon 07:46:27 AM 40.6800 -82.5047 252° West 373 429 38,000  Level Indianapolis Center
Mon 07:47:28 AM 40.6478 -82.6358 252° West 373 429 38,000  Level Indianapolis Center
Mon 07:48:30 AM 40.6153 -82.7661 252° West 372 428 38,000  Level Indianapolis Center
Mon 07:49:31 AM 40.5817 -82.8975 251° West 375 432 38,000  Level Indianapolis Center
Mon 07:50:32 AM 40.5481 -83.0322 252° West 384 442 38,000  Level Indianapolis Center
Mon 07:51:34 AM 40.5128 -83.1842 253° West 379 436 38,000  Level Indianapolis Center
Mon 07:52:35 AM 40.5208 -83.3275 274° West 393 452 38,000  Level Indianapolis Center
Mon 07:53:37 AM 40.5564 -83.4647 289° West 396 456 38,000  Level Indianapolis Center
Mon 07:54:38 AM 40.5908 -83.6022 288° West 394 453 38,000  Level Indianapolis Center
Mon 07:55:39 AM 40.6250 -83.7389 288° West 391 450 38,000 -537 Level Indianapolis Center
Mon 07:56:41 AM 40.6603 -83.8764 289° West 395 455 36,900 -1,561 Descending Indianapolis Center
Mon 07:57:42 AM 40.6964 -84.0225 288° West 413 475 34,800 -2,098 Descending Indianapolis Center
Mon 07:58:44 AM 40.7317 -84.1653 288° West 408 470 32,600 -2,032 Descending Indianapolis Center
Mon 07:59:46 AM 40.7675 -84.3094 288° West 409 471 30,600 -1,268 Descending Indianapolis Center
Mon 08:00:47 AM 40.8028 -84.4561 288° West 415 478 30,000 -293 Descending Indianapolis Center
Mon 08:01:49 AM 40.8461 -84.6281 288° West 420 483 30,000  Level Indianapolis Center
Mon 08:02:50 AM 40.8808 -84.7767 287° West 422 486 30,000  Level Indianapolis Center
Mon 08:03:35 AM 40.9058 -84.8828 287° West 425 489 30,000  Level Chicago Center
Mon 08:04:37 AM 40.9422 -85.0306 288° West 423 487 30,000  Level Chicago Center
Mon 08:05:38 AM 40.9997 -85.1703 299° West 434 499 30,000 -780 Level Chicago Center
Mon 08:06:40 AM 41.0897 -85.2756 319° Northwest 431 496 28,400 -1,306 Descending Chicago Center
Mon 08:07:42 AM 41.2003 -85.3328 339° North 428 493 27,300 -1,065 Descending Chicago Center
Mon 08:08:44 AM 41.3097 -85.3936 337° Northwest 426 490 26,200 -1,366 Descending Chicago Center
Mon 08:09:45 AM 41.4317 -85.4708 335° Northwest 405 466 24,500 -1,073 Descending Chicago Center
Mon 08:10:47 AM 41.4789 -85.6086 295° West 410 472 24,000 -242 Descending Chicago Center
Mon 08:11:49 AM 41.4950 -85.7569 278° West 402 463 24,000 -1,161 Level Chicago Center
Mon 08:12:51 AM 41.5114 -85.9042 279° West 401 461 21,600 -2,780 Descending Chicago Center
Mon 08:13:52 AM 41.5256 -86.0528 277° West 402 463 18,300 -3,171 Descending Chicago Center
Mon 08:14:54 AM 41.5228 -86.1942 269° West 386 444 15,100 -3,000 Descending Chicago Center
Mon 08:15:56 AM 41.5228 -86.3297 270° West 369 425 12,100 -2,323 Descending Chicago Center
Mon 08:16:58 AM 41.5214 -86.4594 269° West 353 406 10,300 -1,016 Descending Chicago Center
Mon 08:18:00 AM 41.5208 -86.6167 270° West 354 407 10,000 -146 Descending Chicago Center
Mon 08:19:01 AM 41.5206 -86.7339 270° West 352 405 10,000 -244 Level Chicago Center
Mon 08:20:03 AM 41.5303 -86.8564 276° West 346 398 9,500 -968 Descending Chicago Center
Mon 08:21:05 AM 41.5167 -86.9808 262° West 288 331 8,000 -1,355 Descending Chicago Center
Mon 08:22:07 AM 41.5169 -87.0869 270° West 287 330 6,700 -1,016 Descending Chicago Center
Mon 08:23:09 AM 41.5197 -87.1867 272° West 276 318 5,900 -387 Descending Chicago Center
Mon 08:24:11 AM 41.5256 -87.2864 275° West 271 312 5,900  Level Chicago Center
Mon 08:25:13 AM 41.5350 -87.3853 277° West 271 312 5,900 -176 Level Chicago Center
Mon 08:26:27 AM 41.5561 -87.5172 282° West 269 310 5,500 -794 Descending Chicago Center
Mon 08:27:29 AM 41.6200 -87.5356 348° North 257 296 4,100 -871 Descending Chicago Center
Mon 08:28:31 AM 41.6683 -87.5858 322° Northwest 228 262 3,700 -629 Descending Chicago Center
Mon 08:29:33 AM 41.7044 -87.6383 313° West 211 243 2,800 -919 Descending Chicago Center
Mon 08:30:35 AM 41.7375 -87.6861 313° West 194 223 1,800 -629 Descending Chicago Center
Mon 08:31:37 AM 41.7847 -87.7064 342° North 166 191 1,500 -242 Descending Chicago Center
Mon 08:32:39 AM 41.8222 -87.7181 347° North 162 186 1,300 -194 Descending Chicago Center
Mon 08:34:00 AM 41.7833 -87.7500 217° Southwest  Level FlightAware Approximate

Login

Don't have an account? Register now (free) for customized features, flight alerts, and more!